createdAt,value
2023-04-02T00:04:26.429Z,7.15
2023-04-02T00:06:54.947Z,7.50
2023-04-02T00:09:25.074Z,7.35
2023-04-02T00:11:55.968Z,7.75
2023-04-02T00:14:28.742Z,7.75
2023-04-02T00:16:56.842Z,7.68
2023-04-02T00:19:26.296Z,8.18
2023-04-02T00:21:53.910Z,7.18
2023-04-02T00:24:22.442Z,7.55
2023-04-02T00:26:53.627Z,7.40
2023-04-02T00:29:21.245Z,8.07
2023-04-02T00:31:49.756Z,8.07
2023-04-02T00:36:44.224Z,8.32
2023-04-02T00:39:16.472Z,8.07
2023-04-02T00:41:46.953Z,9.02
2023-04-02T00:44:15.668Z,7.88
2023-04-02T00:46:49.745Z,8.98
2023-04-02T00:49:24.400Z,8.75
2023-04-02T00:51:57.078Z,8.52
2023-04-02T00:54:26.596Z,8.70
2023-04-02T00:56:56.190Z,8.45
2023-04-02T00:59:26.085Z,8.13
2023-04-02T01:01:54.722Z,8.98
2023-04-02T01:06:53.484Z,8.63
2023-04-02T01:09:27.058Z,8.95
2023-04-02T01:12:12.978Z,8.43
2023-04-02T01:14:55.713Z,8.52
2023-04-02T01:17:33.444Z,8.40
2023-04-02T01:20:31.080Z,8.73
2023-04-02T01:23:06.181Z,8.23
2023-04-02T01:25:39.237Z,8.30
2023-04-02T01:28:27.258Z,7.70
2023-04-02T01:30:56.466Z,8.68
2023-04-02T01:33:25.054Z,8.45
2023-04-02T01:36:08.889Z,7.90
2023-04-02T01:38:44.929Z,7.63
2023-04-02T01:41:25.159Z,7.82
2023-04-02T01:44:18.516Z,7.32
2023-04-02T01:46:48.969Z,7.93
2023-04-02T01:49:20.609Z,7.55
2023-04-02T01:51:53.019Z,7.78
2023-04-02T01:54:21.501Z,7.45
2023-04-02T01:56:49.139Z,7.65
2023-04-02T01:59:18.150Z,7.75
2023-04-02T02:01:49.278Z,8.18
2023-04-02T02:04:17.250Z,7.93
2023-04-02T02:06:45.124Z,9.32
2023-04-02T02:09:24.969Z,9.07
2023-04-02T02:11:52.127Z,7.85
2023-04-02T02:14:20.708Z,8.30
2023-04-02T02:16:48.681Z,7.30
2023-04-02T02:19:27.273Z,7.80
2023-04-02T02:24:31.861Z,7.18
2023-04-02T02:27:21.370Z,8.18
2023-04-02T02:29:51.972Z,8.07
2023-04-02T02:32:22.233Z,8.30
2023-04-02T02:35:00.032Z,7.07
2023-04-02T02:37:30.613Z,7.03
2023-04-02T02:40:01.333Z,6.95
2023-04-02T02:42:40.636Z,6.53
2023-04-02T02:45:33.942Z,6.30
2023-04-02T02:48:02.288Z,6.50
2023-04-02T02:50:31.801Z,5.50
2023-04-02T02:53:00.403Z,6.55
2023-04-02T02:55:34.567Z,6.35
2023-04-02T02:58:11.817Z,6.18
2023-04-02T03:00:40.156Z,5.85
2023-04-02T03:03:18.189Z,5.97
2023-04-02T03:05:53.801Z,5.72
2023-04-02T03:08:42.987Z,5.80
2023-04-02T03:11:32.271Z,6.60
2023-04-02T03:14:10.437Z,6.57
2023-04-02T03:16:43.199Z,6.68
2023-04-02T03:19:33.435Z,6.75
2023-04-02T03:22:17.504Z,6.38
2023-04-02T03:24:56.233Z,6.65
2023-04-02T03:27:28.260Z,6.45
2023-04-02T03:30:23.509Z,6.07
2023-04-02T03:32:54.953Z,6.65
2023-04-02T03:35:38.897Z,5.53
2023-04-02T03:38:34.944Z,6.13
2023-04-02T03:41:19.567Z,6.22
2023-04-02T03:43:48.822Z,6.30
2023-04-02T03:46:35.461Z,5.72
2023-04-02T03:49:18.826Z,6.25
2023-04-02T03:52:11.850Z,5.85
2023-04-02T03:54:39.555Z,6.38
2023-04-02T03:57:25.012Z,6.50
2023-04-02T04:00:05.616Z,5.95
2023-04-02T04:02:47.570Z,6.10
2023-04-02T04:05:29.757Z,5.80
2023-04-02T04:08:05.147Z,6.15
2023-04-02T04:10:32.619Z,5.97
2023-04-02T04:13:11.735Z,6.30
2023-04-02T04:16:04.989Z,6.32
2023-04-02T04:19:03.212Z,6.60
2023-04-02T04:21:30.968Z,6.80
2023-04-02T04:24:05.964Z,6.30
2023-04-02T04:26:41.213Z,5.97
2023-04-02T04:29:26.252Z,5.68
2023-04-02T04:31:56.105Z,5.85
2023-04-02T04:34:30.013Z,5.90
2023-04-02T04:37:03.047Z,5.60
2023-04-02T04:40:07.481Z,5.18
2023-04-02T04:42:37.579Z,5.82
2023-04-02T04:45:10.037Z,4.75
2023-04-02T04:47:39.899Z,4.97
2023-04-02T04:50:31.453Z,5.70
2023-04-02T04:53:06.409Z,5.32
2023-04-02T04:55:41.006Z,4.93
2023-04-02T04:58:37.265Z,5.00
2023-04-02T05:01:25.773Z,4.53
2023-04-02T05:06:39.960Z,4.82
2023-04-02T05:09:27.407Z,4.60
2023-04-02T05:12:19.265Z,4.65
2023-04-02T05:14:51.380Z,3.78
2023-04-02T05:17:22.471Z,3.70
2023-04-02T05:20:09.858Z,3.67
2023-04-02T05:22:49.611Z,3.72
2023-04-02T05:25:25.707Z,3.38
2023-04-02T05:27:58.760Z,3.92
2023-04-02T05:30:28.538Z,2.88
2023-04-02T05:33:07.845Z,2.97
2023-04-02T05:35:37.844Z,2.60
2023-04-02T05:38:06.610Z,2.92
2023-04-02T05:40:43.768Z,2.80
2023-04-02T05:43:14.179Z,2.60
2023-04-02T05:45:43.539Z,3.15
2023-04-02T05:48:25.970Z,3.15
2023-04-02T05:50:55.882Z,2.35
2023-04-02T05:53:29.393Z,2.72
2023-04-02T05:56:34.111Z,2.47
2023-04-02T05:59:21.759Z,2.75
2023-04-02T06:02:13.161Z,2.90
2023-04-02T06:04:52.482Z,3.03
2023-04-02T06:07:34.441Z,3.13
2023-04-02T06:10:03.335Z,3.20
2023-04-02T06:12:42.361Z,3.40
2023-04-02T06:15:17.795Z,3.63
2023-04-02T06:18:01.650Z,2.90
2023-04-02T06:20:28.860Z,3.38
2023-04-02T06:23:12.670Z,2.60
2023-04-02T06:26:05.454Z,3.08
2023-04-02T06:28:47.710Z,2.65
2023-04-02T06:31:38.281Z,3.15
2023-04-02T06:34:07.918Z,2.95
2023-04-02T06:36:34.864Z,3.50
2023-04-02T06:39:07.586Z,4.13
2023-04-02T06:41:34.364Z,3.65
2023-04-02T06:44:24.428Z,3.65
2023-04-02T06:47:01.949Z,3.90
2023-04-02T06:49:42.648Z,3.58
2023-04-02T06:52:25.068Z,4.10
2023-04-02T06:54:52.032Z,4.10
2023-04-02T06:57:19.977Z,3.75
2023-04-02T06:59:46.754Z,4.13
2023-04-02T07:02:28.073Z,3.67
2023-04-02T07:04:58.973Z,3.22
2023-04-02T07:07:27.416Z,3.15
2023-04-02T07:09:54.069Z,2.85
2023-04-02T07:12:26.646Z,3.50
2023-04-02T07:14:53.906Z,3.38
2023-04-02T07:17:22.030Z,2.97
2023-04-02T07:22:19.912Z,3.92
2023-04-02T07:24:46.986Z,3.08
2023-04-02T07:27:14.727Z,3.55
2023-04-02T07:29:44.822Z,3.55
2023-04-02T07:32:15.014Z,2.50
2023-04-02T07:34:42.195Z,2.85
2023-04-02T07:37:13.766Z,2.72
2023-04-02T07:39:40.860Z,2.70
2023-04-02T07:42:08.085Z,3.13
2023-04-02T07:44:35.025Z,2.20
2023-04-02T07:47:02.011Z,2.40
2023-04-02T07:49:29.000Z,2.58
2023-04-02T07:51:55.861Z,2.30
2023-04-02T07:54:22.834Z,2.38
2023-04-02T07:56:49.599Z,2.20
2023-04-02T07:59:16.464Z,2.42
2023-04-02T08:01:43.332Z,2.30
2023-04-02T08:04:19.167Z,2.38
2023-04-02T08:06:47.379Z,3.05
2023-04-02T08:09:15.470Z,2.33
2023-04-02T08:11:42.315Z,2.20
2023-04-02T08:14:10.186Z,2.90
2023-04-02T08:16:51.427Z,2.40
2023-04-02T08:19:19.964Z,2.88
2023-04-02T08:21:50.395Z,2.42
2023-04-02T08:24:21.148Z,2.45
2023-04-02T08:26:49.238Z,2.65
2023-04-02T08:29:16.270Z,2.53
2023-04-02T08:31:42.970Z,3.03
2023-04-02T08:34:10.345Z,2.90
2023-04-02T08:36:39.442Z,2.63
2023-04-02T08:39:12.070Z,3.00
2023-04-02T08:41:54.163Z,3.22
2023-04-02T08:44:39.215Z,3.38
2023-04-02T08:47:09.099Z,3.17
2023-04-02T08:49:55.916Z,3.70
2023-04-02T08:52:28.176Z,4.13
2023-04-02T08:54:56.250Z,3.50
2023-04-02T08:57:41.818Z,3.33
2023-04-02T09:00:38.316Z,3.53
2023-04-02T09:03:25.256Z,3.60
2023-04-02T09:05:52.456Z,2.97
2023-04-02T09:08:25.052Z,3.75
2023-04-02T09:11:00.588Z,3.20
2023-04-02T09:13:30.580Z,3.40
2023-04-02T09:16:16.389Z,3.78
2023-04-02T09:18:45.588Z,3.15
2023-04-02T09:21:34.519Z,3.05
2023-04-02T09:24:02.813Z,2.42
2023-04-02T09:26:33.007Z,2.15
2023-04-02T09:29:24.875Z,2.00
2023-04-02T09:32:14.264Z,1.75
2023-04-02T09:34:41.380Z,2.20
2023-04-02T09:37:19.731Z,1.60
2023-04-02T09:39:47.448Z,2.05
2023-04-02T09:42:34.243Z,1.70
2023-04-02T09:45:21.322Z,1.85
2023-04-02T09:47:49.652Z,1.92
2023-04-02T09:50:23.332Z,1.83
2023-04-02T09:52:51.383Z,1.80
2023-04-02T09:55:24.321Z,2.67
2023-04-02T09:58:06.990Z,2.20
2023-04-02T10:00:37.584Z,1.73
2023-04-02T10:03:17.966Z,1.70
2023-04-02T10:05:46.784Z,2.03
2023-04-02T10:08:20.499Z,1.67
2023-04-02T10:10:51.443Z,1.90
2023-04-02T10:13:39.872Z,1.58
2023-04-02T10:16:20.883Z,2.10
2023-04-02T10:19:13.337Z,1.50
2023-04-02T10:21:43.156Z,1.50
2023-04-02T10:24:15.752Z,1.88
2023-04-02T10:27:09.978Z,1.85
2023-04-02T10:30:05.501Z,1.80
2023-04-02T10:32:45.704Z,1.70
2023-04-02T10:35:40.879Z,2.00
2023-04-02T10:38:38.740Z,1.83
2023-04-02T10:41:31.106Z,1.92
2023-04-02T10:44:27.952Z,1.77
2023-04-02T10:47:15.860Z,1.77
2023-04-02T10:49:53.047Z,1.80
2023-04-02T10:52:43.477Z,1.73
2023-04-02T10:55:26.018Z,2.00
2023-04-02T10:57:55.933Z,1.42
2023-04-02T11:00:35.269Z,2.03
2023-04-02T11:03:08.116Z,1.70
2023-04-02T11:05:43.773Z,2.17
2023-04-02T11:08:18.605Z,1.77
2023-04-02T11:10:48.051Z,1.60
2023-04-02T11:13:31.200Z,1.73
2023-04-02T11:15:59.247Z,1.60
2023-04-02T11:18:36.556Z,1.92
2023-04-02T11:21:03.776Z,1.67
2023-04-02T11:23:33.694Z,1.70
2023-04-02T11:26:29.212Z,1.77
2023-04-02T11:29:17.194Z,1.70
2023-04-02T11:31:45.850Z,1.55
2023-04-02T11:37:00.474Z,1.58
2023-04-02T11:39:47.309Z,1.27
2023-04-02T11:42:23.323Z,1.65
2023-04-02T11:44:50.356Z,1.55
2023-04-02T11:47:23.155Z,1.52
2023-04-02T11:49:56.923Z,1.65
2023-04-02T11:52:33.028Z,1.50
2023-04-02T11:55:25.033Z,1.25
2023-04-02T11:58:10.476Z,1.65
2023-04-02T12:00:58.809Z,1.50
2023-04-02T12:03:30.081Z,1.50
2023-04-02T12:06:19.156Z,1.40
2023-04-02T12:08:57.999Z,1.60
2023-04-02T12:11:39.954Z,1.67
2023-04-02T12:14:32.732Z,1.30
2023-04-02T12:17:00.110Z,1.40
2023-04-02T12:19:30.864Z,1.38
2023-04-02T12:21:59.422Z,1.30
2023-04-02T12:24:31.275Z,1.65
2023-04-02T12:27:22.634Z,1.15
2023-04-02T12:29:51.565Z,1.42
2023-04-02T12:32:30.103Z,1.30
2023-04-02T12:34:58.149Z,1.33
2023-04-02T12:37:29.337Z,1.48
2023-04-02T12:39:58.371Z,1.65
2023-04-02T12:42:36.304Z,1.52
2023-04-02T12:45:05.413Z,1.88
2023-04-02T12:47:32.569Z,1.50
2023-04-02T12:50:01.264Z,1.15
2023-04-02T12:55:01.194Z,1.40
2023-04-02T12:57:28.995Z,1.45
2023-04-02T13:00:00.156Z,1.83
2023-04-02T13:02:27.570Z,1.42
2023-04-02T13:05:01.894Z,1.45
2023-04-02T13:07:33.856Z,1.60
2023-04-02T13:10:02.181Z,1.30
2023-04-02T13:12:44.619Z,1.20
2023-04-02T13:15:33.073Z,1.67
2023-04-02T13:20:58.992Z,1.55
2023-04-02T13:23:32.668Z,1.35
2023-04-02T13:26:01.269Z,1.15
2023-04-02T13:30:55.733Z,1.30
2023-04-02T13:33:22.926Z,1.70
2023-04-02T13:35:50.131Z,1.30
2023-04-02T13:38:17.269Z,1.23
2023-04-02T13:40:44.456Z,1.20
2023-04-02T13:43:19.443Z,1.20
2023-04-02T13:45:51.248Z,1.08
2023-04-02T13:48:18.763Z,1.38
2023-04-02T13:50:46.770Z,1.40
2023-04-02T13:53:20.472Z,1.10
2023-04-02T13:55:48.576Z,1.20
2023-04-02T13:58:16.076Z,1.40
2023-04-02T14:00:43.808Z,1.35
2023-04-02T14:03:14.100Z,1.33
2023-04-02T14:06:00.955Z,1.52
2023-04-02T14:08:28.076Z,1.38
2023-04-02T14:10:55.397Z,1.23
2023-04-02T14:13:33.509Z,1.25
2023-04-02T14:16:19.678Z,1.23
2023-04-02T14:19:05.087Z,1.20
2023-04-02T14:21:41.722Z,1.77
2023-04-02T14:24:15.051Z,1.15
2023-04-02T14:26:49.165Z,1.40
2023-04-02T14:29:39.011Z,1.23
2023-04-02T14:32:11.555Z,1.35
2023-04-02T14:34:47.962Z,1.10
2023-04-02T14:37:18.291Z,1.00
2023-04-02T14:39:51.824Z,1.40
2023-04-02T14:42:48.821Z,1.27
2023-04-02T14:45:33.975Z,1.17
2023-04-02T14:48:07.666Z,1.42
2023-04-02T14:50:40.443Z,1.02
2023-04-02T14:53:21.934Z,1.10
2023-04-02T14:55:50.926Z,1.90
2023-04-02T14:58:26.408Z,1.10
2023-04-02T15:01:06.083Z,1.35
2023-04-02T15:03:43.018Z,1.27
2023-04-02T15:06:18.363Z,1.15
2023-04-02T15:09:02.035Z,1.30
2023-04-02T15:11:39.222Z,1.50
2023-04-02T15:14:17.310Z,1.40
2023-04-02T15:16:44.731Z,1.65
2023-04-02T15:19:13.904Z,1.00
2023-04-02T15:21:55.593Z,1.35
2023-04-02T15:24:31.701Z,1.25
2023-04-02T15:27:24.902Z,1.30
2023-04-02T15:30:11.706Z,1.20
2023-04-02T15:32:40.569Z,1.27
2023-04-02T15:35:23.158Z,1.77
2023-04-02T15:38:21.581Z,1.17
2023-04-02T15:41:23.779Z,2.55
2023-04-02T15:44:14.764Z,1.40
2023-04-02T15:47:13.878Z,1.40
2023-04-02T15:49:43.266Z,1.35
2023-04-02T15:52:13.467Z,1.42
2023-04-02T15:54:53.662Z,1.58
2023-04-02T15:57:45.882Z,1.13
2023-04-02T16:00:23.716Z,1.48
2023-04-02T16:02:53.451Z,1.23
2023-04-02T16:05:36.460Z,1.60
2023-04-02T16:08:18.737Z,1.35
2023-04-02T16:10:45.684Z,1.10
2023-04-02T16:13:38.531Z,1.20
2023-04-02T16:16:09.984Z,1.70
2023-04-02T16:19:05.072Z,1.25
2023-04-02T16:21:58.873Z,1.50
2023-04-02T16:24:26.124Z,2.00
2023-04-02T16:27:26.369Z,3.08
2023-04-02T16:30:31.702Z,1.60
2023-04-02T16:33:32.796Z,1.80
2023-04-02T16:36:22.458Z,1.70
2023-04-02T16:38:56.152Z,2.60
2023-04-02T16:41:37.420Z,1.70
2023-04-02T16:44:45.670Z,1.20
2023-04-02T16:48:01.045Z,1.00
2023-04-02T16:50:34.510Z,0.95
2023-04-02T16:53:04.509Z,1.67
2023-04-02T16:55:37.011Z,2.20
2023-04-02T16:58:33.370Z,1.10
2023-04-02T17:01:12.653Z,1.08
2023-04-02T17:04:15.063Z,1.52
2023-04-02T17:07:03.142Z,1.50
2023-04-02T17:09:51.091Z,1.60
2023-04-02T17:12:22.888Z,2.15
2023-04-02T17:14:57.816Z,2.30
2023-04-02T17:17:25.019Z,2.72
2023-04-02T17:19:54.584Z,2.55
2023-04-02T17:22:22.684Z,2.17
2023-04-02T17:24:53.766Z,1.60
2023-04-02T17:27:24.394Z,1.58
2023-04-02T17:29:54.550Z,1.20
2023-04-02T17:32:29.936Z,1.30
2023-04-02T17:34:57.604Z,1.20
2023-04-02T17:37:33.374Z,1.60
2023-04-02T17:40:19.596Z,1.60
2023-04-02T17:42:58.458Z,1.30
2023-04-02T17:45:31.249Z,1.25
2023-04-02T17:48:03.002Z,1.40
2023-04-02T17:50:51.923Z,1.70
2023-04-02T17:53:39.647Z,1.50
2023-04-02T17:56:22.901Z,1.20
2023-04-02T17:59:21.708Z,1.55
2023-04-02T18:02:07.290Z,1.70
2023-04-02T18:05:16.497Z,1.52
2023-04-02T18:07:52.842Z,1.23
2023-04-02T18:10:45.525Z,2.22
2023-04-02T18:13:34.643Z,1.00
2023-04-02T18:16:25.883Z,1.50
2023-04-02T18:19:03.553Z,1.02
2023-04-02T18:21:46.689Z,1.40
2023-04-02T18:24:36.893Z,1.65
2023-04-02T18:27:23.876Z,1.50
2023-04-02T18:30:26.030Z,1.40
2023-04-02T18:33:20.606Z,1.65
2023-04-02T18:36:37.046Z,1.30
2023-04-02T18:39:24.934Z,1.55
2023-04-02T18:42:29.021Z,2.30
2023-04-02T18:45:00.453Z,1.95
2023-04-02T18:47:39.633Z,1.80
2023-04-02T18:50:30.302Z,1.60
2023-04-02T18:52:57.119Z,1.63
2023-04-02T18:55:33.118Z,1.73
2023-04-02T18:58:06.800Z,1.80
2023-04-02T19:00:36.566Z,1.67
2023-04-02T19:03:29.194Z,1.50
2023-04-02T19:06:04.610Z,1.65
2023-04-02T19:08:43.523Z,1.50
2023-04-02T19:11:18.250Z,1.40
2023-04-02T19:13:45.173Z,1.80
2023-04-02T19:16:18.675Z,1.52
2023-04-02T19:18:48.969Z,2.63
2023-04-02T19:21:41.184Z,2.67
2023-04-02T19:24:18.158Z,2.22
2023-04-02T19:26:54.248Z,2.10
2023-04-02T19:29:52.572Z,1.90
2023-04-02T19:35:26.936Z,2.47
2023-04-02T19:38:25.664Z,2.60
2023-04-02T19:41:04.255Z,2.33
2023-04-02T19:43:30.927Z,1.98
2023-04-02T19:45:57.924Z,1.70
2023-04-02T19:48:34.266Z,1.60
2023-04-02T19:51:01.184Z,1.60
2023-04-02T19:53:27.969Z,1.52
2023-04-02T19:55:57.100Z,1.88
2023-04-02T19:58:29.708Z,1.52
2023-04-02T20:00:57.294Z,1.50
2023-04-02T20:03:24.291Z,1.65
2023-04-02T20:05:54.573Z,1.75
2023-04-02T20:08:21.395Z,1.60
2023-04-02T20:10:48.161Z,1.35
2023-04-02T20:13:14.957Z,1.23
2023-04-02T20:15:41.694Z,1.98
2023-04-02T20:18:10.322Z,1.83
2023-04-02T20:23:05.911Z,1.45
2023-04-02T20:25:33.505Z,1.35
2023-04-02T20:28:01.091Z,1.10
2023-04-02T20:30:27.762Z,1.05
2023-04-02T20:32:55.642Z,1.10
2023-04-02T20:35:22.500Z,1.27
2023-04-02T20:37:49.128Z,1.23
2023-04-02T20:40:15.863Z,1.30
2023-04-02T20:42:42.583Z,1.27
2023-04-02T20:45:10.010Z,1.60
2023-04-02T20:47:37.351Z,2.13
2023-04-02T20:50:05.130Z,1.33
2023-04-02T20:52:33.965Z,1.25
2023-04-02T20:55:01.677Z,1.20
2023-04-02T20:57:32.706Z,1.50
2023-04-02T21:00:02.234Z,1.10
2023-04-02T21:02:28.916Z,1.17
2023-04-02T21:04:56.479Z,1.20
2023-04-02T21:07:23.373Z,1.20
2023-04-02T21:09:51.754Z,1.05
2023-04-02T21:12:18.828Z,1.20
2023-04-02T21:14:46.010Z,1.20
2023-04-02T21:17:13.153Z,1.50
2023-04-02T21:19:40.392Z,1.40
2023-04-02T21:22:07.444Z,1.63
2023-04-02T21:24:34.627Z,1.40
2023-04-02T21:27:01.333Z,1.20
2023-04-02T21:29:28.068Z,1.33
2023-04-02T21:31:54.982Z,1.48
2023-04-02T21:34:21.749Z,1.40
2023-04-02T21:36:50.246Z,1.60
2023-04-02T21:39:18.289Z,1.70
2023-04-02T21:41:46.848Z,1.60
2023-04-02T21:44:15.611Z,1.25
2023-04-02T21:49:12.010Z,1.30
2023-04-02T21:51:40.177Z,1.10
2023-04-02T21:54:07.905Z,1.20
2023-04-02T21:56:36.925Z,1.03
2023-04-02T21:59:05.355Z,1.40
2023-04-02T22:01:34.160Z,1.17
2023-04-02T22:04:02.228Z,0.93
2023-04-02T22:06:31.560Z,1.15
2023-04-02T22:09:04.504Z,1.48
2023-04-02T22:11:34.849Z,1.20
2023-04-02T22:14:03.429Z,1.38
2023-04-02T22:18:59.113Z,1.30
2023-04-02T22:21:26.571Z,1.30
2023-04-02T22:23:53.963Z,1.50
2023-04-02T22:26:24.334Z,1.60
2023-04-02T22:28:52.596Z,1.33
2023-04-02T22:31:22.673Z,1.80
2023-04-02T22:33:50.374Z,2.25
2023-04-02T22:36:18.191Z,2.03
2023-04-02T22:38:45.516Z,2.00
2023-04-02T22:41:14.591Z,1.95
2023-04-02T22:43:43.924Z,1.58
2023-04-02T22:46:13.018Z,1.90
2023-04-02T22:48:40.156Z,1.80
2023-04-02T22:51:08.599Z,1.50
2023-04-02T22:53:36.560Z,1.65
2023-04-02T22:56:05.881Z,1.80
2023-04-02T22:58:34.423Z,2.08
2023-04-02T23:01:14.257Z,1.67
2023-04-02T23:03:41.514Z,1.50
2023-04-02T23:06:10.036Z,1.48
2023-04-02T23:08:38.623Z,1.55
2023-04-02T23:11:07.174Z,1.40
2023-04-02T23:13:34.747Z,1.92
2023-04-02T23:16:02.676Z,1.75
2023-04-02T23:18:32.102Z,1.75
2023-04-02T23:20:58.921Z,1.58
2023-04-02T23:23:26.032Z,1.85
2023-04-02T23:26:14.990Z,2.05
2023-04-02T23:28:42.128Z,1.95
2023-04-02T23:31:12.944Z,1.67
2023-04-02T23:33:39.947Z,1.70
2023-04-02T23:36:13.419Z,1.77
2023-04-02T23:38:40.475Z,2.25
2023-04-02T23:41:07.196Z,1.90
2023-04-02T23:43:34.094Z,1.90
2023-04-02T23:46:01.131Z,2.28
2023-04-02T23:48:27.898Z,1.80
2023-04-02T23:50:54.556Z,1.80
2023-04-02T23:53:21.634Z,1.70
2023-04-02T23:55:48.309Z,1.98
2023-04-02T23:58:15.398Z,1.80
